createdAt,value
2018-04-20T00:00:05.391Z,11.03
2018-04-20T00:02:33.630Z,12.33
2018-04-20T00:05:01.097Z,9.80
2018-04-20T00:07:28.554Z,12.67
2018-04-20T00:09:56.955Z,12.97
2018-04-20T00:12:24.420Z,14.83
2018-04-20T00:14:52.100Z,11.80
2018-04-20T00:17:19.551Z,12.37
2018-04-20T00:19:47.091Z,12.50
2018-04-20T00:22:14.546Z,12.10
2018-04-20T00:24:42.001Z,13.10
2018-04-20T00:27:09.455Z,12.07
2018-04-20T00:29:36.934Z,14.93
2018-04-20T00:32:04.400Z,13.97
2018-04-20T00:34:31.854Z,11.30
2018-04-20T00:36:59.378Z,19.60
2018-04-20T00:39:26.862Z,11.80
2018-04-20T00:41:54.298Z,17.27
2018-04-20T00:44:22.510Z,12.53
2018-04-20T00:46:49.954Z,10.43
2018-04-20T00:49:17.403Z,13.47
2018-04-20T00:51:44.850Z,10.43
2018-04-20T00:54:23.964Z,10.50
2018-04-20T00:56:51.425Z,12.10
2018-04-20T00:59:19.630Z,14.70
2018-04-20T01:01:47.066Z,12.33
2018-04-20T01:04:14.517Z,11.63
2018-04-20T01:06:42.784Z,11.90
2018-04-20T01:09:10.230Z,10.53
2018-04-20T01:11:37.678Z,11.47
2018-04-20T01:14:05.162Z,10.83
2018-04-20T01:16:32.618Z,11.17
2018-04-20T01:19:00.068Z,10.03
2018-04-20T01:21:27.546Z,15.60
2018-04-20T01:23:54.997Z,13.10
2018-04-20T01:26:22.652Z,11.77
2018-04-20T01:28:50.111Z,19.90
2018-04-20T01:31:17.559Z,10.70
2018-04-20T01:33:45.067Z,12.90
2018-04-20T01:36:12.695Z,10.63
2018-04-20T01:38:40.131Z,10.83
2018-04-20T01:41:08.342Z,13.17
2018-04-20T01:43:35.782Z,12.07
2018-04-20T01:46:03.290Z,12.03
2018-04-20T01:48:30.747Z,14.00
2018-04-20T01:50:58.208Z,11.87
2018-04-20T01:53:25.660Z,10.50
2018-04-20T01:55:53.683Z,14.47
2018-04-20T01:58:21.132Z,10.97
2018-04-20T02:00:48.602Z,9.50
2018-04-20T02:03:16.031Z,12.20
2018-04-20T02:05:43.591Z,10.80
2018-04-20T02:08:11.027Z,17.17
2018-04-20T02:10:38.510Z,13.00
2018-04-20T02:13:05.973Z,13.10
2018-04-20T02:15:33.421Z,10.73
2018-04-20T02:18:00.890Z,11.83
2018-04-20T02:20:29.241Z,10.70
2018-04-20T02:22:56.704Z,12.67
2018-04-20T02:25:24.198Z,12.37
2018-04-20T02:27:51.637Z,10.90
2018-04-20T02:30:19.128Z,11.60
2018-04-20T02:32:46.583Z,10.37
2018-04-20T02:35:14.050Z,10.10
2018-04-20T02:37:41.514Z,11.10
2018-04-20T02:40:08.978Z,13.83
2018-04-20T02:42:36.443Z,14.00
2018-04-20T02:45:03.883Z,9.50
2018-04-20T02:47:31.322Z,17.00
2018-04-20T02:49:58.820Z,11.20
2018-04-20T02:52:26.262Z,11.73
2018-04-20T02:54:53.738Z,12.57
2018-04-20T02:57:21.193Z,12.70
2018-04-20T02:59:49.303Z,13.43
2018-04-20T03:02:16.847Z,12.23
2018-04-20T03:04:44.294Z,14.77
2018-04-20T03:07:11.737Z,13.47
2018-04-20T03:09:39.190Z,15.13
2018-04-20T03:12:06.614Z,13.30
2018-04-20T03:14:34.081Z,20.73
2018-04-20T03:17:01.607Z,15.40
2018-04-20T03:19:29.061Z,11.70
2018-04-20T03:21:56.608Z,13.20
2018-04-20T03:24:24.103Z,13.23
2018-04-20T03:26:51.559Z,12.87
2018-04-20T03:29:18.995Z,10.83
2018-04-20T03:31:46.435Z,13.13
2018-04-20T03:34:13.873Z,17.03
2018-04-20T03:36:41.314Z,12.13
2018-04-20T03:39:08.773Z,11.60
2018-04-20T03:41:36.227Z,11.33
2018-04-20T03:44:03.685Z,11.67
2018-04-20T03:46:31.135Z,12.53
2018-04-20T03:48:58.582Z,15.30
2018-04-20T03:51:26.046Z,10.60
2018-04-20T03:53:53.486Z,18.97
2018-04-20T03:56:20.998Z,17.67
2018-04-20T03:58:49.179Z,13.90
2018-04-20T04:01:16.640Z,13.70
2018-04-20T04:03:44.098Z,12.87
2018-04-20T04:06:11.551Z,19.93
2018-04-20T04:08:38.990Z,17.90
2018-04-20T04:11:06.430Z,15.80
2018-04-20T04:13:34.638Z,15.13
2018-04-20T04:16:02.098Z,15.10
2018-04-20T04:18:41.566Z,16.47
2018-04-20T04:21:20.990Z,17.47
2018-04-20T04:24:00.442Z,16.43
2018-04-20T04:29:31.534Z,12.83
2018-04-20T04:31:58.977Z,14.00
2018-04-20T04:34:27.183Z,15.77
2018-04-20T04:36:54.626Z,19.03
2018-04-20T04:39:22.059Z,15.53
2018-04-20T04:41:49.593Z,20.17
2018-04-20T04:44:17.043Z,19.67
2018-04-20T04:46:44.503Z,19.13
2018-04-20T04:49:12.739Z,21.17
2018-04-20T04:51:40.966Z,15.27
2018-04-20T04:54:08.407Z,14.43
2018-04-20T04:56:35.894Z,15.33
2018-04-20T04:59:03.365Z,10.97
2018-04-20T05:01:30.836Z,14.70
2018-04-20T05:03:58.388Z,11.57
2018-04-20T05:06:25.845Z,13.27
2018-04-20T05:08:53.280Z,21.37
2018-04-20T05:11:20.723Z,15.33
2018-04-20T05:13:48.170Z,18.00
2018-04-20T05:16:16.455Z,18.47
2018-04-20T05:18:44.671Z,19.50
2018-04-20T05:21:12.106Z,13.73
2018-04-20T05:23:39.578Z,14.77
2018-04-20T05:26:07.007Z,15.87
2018-04-20T05:28:35.255Z,20.23
2018-04-20T05:31:02.720Z,18.67
2018-04-20T05:33:30.271Z,21.03
2018-04-20T05:35:57.727Z,18.97
2018-04-20T05:38:25.199Z,22.27
2018-04-20T05:40:52.662Z,15.67
2018-04-20T05:43:20.119Z,14.20
2018-04-20T05:45:47.596Z,16.20
2018-04-20T05:48:15.057Z,12.47
2018-04-20T05:50:42.500Z,18.60
2018-04-20T05:53:09.940Z,27.40
2018-04-20T05:55:37.405Z,19.60
2018-04-20T05:58:04.845Z,23.50
2018-04-20T06:00:32.306Z,21.50
2018-04-20T06:03:00.506Z,15.53
2018-04-20T06:05:27.958Z,34.97
2018-04-20T06:07:55.403Z,32.53
2018-04-20T06:10:23.632Z,17.00
2018-04-20T06:12:51.063Z,20.97
2018-04-20T06:15:18.521Z,23.40
2018-04-20T06:17:46.765Z,29.73
2018-04-20T06:20:14.162Z,25.87
2018-04-20T06:22:41.609Z,23.13
2018-04-20T06:25:10.758Z,25.57
2018-04-20T06:27:38.204Z,21.03
2018-04-20T06:30:05.687Z,14.77
2018-04-20T06:32:33.169Z,17.57
2018-04-20T06:35:00.618Z,18.73
2018-04-20T06:37:28.050Z,14.23
2018-04-20T06:39:55.594Z,31.23
2018-04-20T06:42:23.013Z,26.07
2018-04-20T06:44:50.543Z,31.40
2018-04-20T06:47:18.015Z,30.87
2018-04-20T06:49:45.470Z,19.63
2018-04-20T06:52:12.928Z,17.73
2018-04-20T06:54:40.382Z,19.93
2018-04-20T06:57:07.859Z,14.60
2018-04-20T06:59:35.307Z,15.57
2018-04-20T07:02:02.755Z,19.30
2018-04-20T07:04:30.243Z,18.80
2018-04-20T07:06:57.690Z,22.00
2018-04-20T07:09:25.124Z,15.87
2018-04-20T07:11:52.576Z,13.87
2018-04-20T07:14:20.074Z,14.53
2018-04-20T07:16:47.553Z,10.00
2018-04-20T07:19:15.035Z,13.10
2018-04-20T07:21:42.503Z,16.57
2018-04-20T07:24:10.709Z,11.03
2018-04-20T07:26:38.159Z,12.00
2018-04-20T07:29:06.398Z,13.37
2018-04-20T07:31:33.855Z,13.83
2018-04-20T07:34:01.416Z,11.50
2018-04-20T07:36:28.892Z,17.50
2018-04-20T07:38:56.331Z,9.70
2018-04-20T07:41:23.787Z,10.67
2018-04-20T07:43:51.230Z,15.07
2018-04-20T07:46:18.683Z,12.73
2018-04-20T07:48:46.191Z,15.80
2018-04-20T07:51:13.718Z,14.23
2018-04-20T07:53:41.174Z,12.77
2018-04-20T07:56:08.609Z,12.67
2018-04-20T07:58:36.820Z,15.17
2018-04-20T08:01:04.298Z,14.60
2018-04-20T08:03:31.774Z,15.90
2018-04-20T08:05:59.214Z,13.53
2018-04-20T08:08:26.687Z,17.53
2018-04-20T08:10:54.146Z,13.07
2018-04-20T08:13:21.592Z,15.23
2018-04-20T08:15:49.025Z,13.73
2018-04-20T08:18:16.483Z,17.43
2018-04-20T08:20:44.683Z,15.40
2018-04-20T08:23:12.170Z,19.93
2018-04-20T08:25:39.635Z,14.60
2018-04-20T08:28:07.099Z,12.63
2018-04-20T08:30:34.537Z,14.80
2018-04-20T08:33:02.017Z,12.40
2018-04-20T08:35:29.481Z,15.77
2018-04-20T08:37:56.943Z,14.13
2018-04-20T08:40:24.425Z,18.37
2018-04-20T08:42:51.842Z,15.17
2018-04-20T08:45:19.299Z,23.80
2018-04-20T08:47:46.786Z,15.70
2018-04-20T08:50:14.234Z,17.90
2018-04-20T08:52:41.702Z,19.37
2018-04-20T08:55:09.145Z,11.87
2018-04-20T08:57:36.634Z,14.70
2018-04-20T09:00:04.079Z,13.73
2018-04-20T09:02:31.544Z,13.83
2018-04-20T09:04:58.982Z,16.03
2018-04-20T09:07:26.421Z,27.87
2018-04-20T09:09:54.634Z,15.57
2018-04-20T09:12:22.095Z,14.53
2018-04-20T09:14:49.545Z,19.93
2018-04-20T09:17:16.974Z,16.10
2018-04-20T09:19:44.514Z,22.57
2018-04-20T09:22:12.002Z,19.50
2018-04-20T09:24:39.463Z,15.47
2018-04-20T09:27:06.991Z,16.53
2018-04-20T09:29:34.443Z,10.93
2018-04-20T09:32:01.901Z,16.60
2018-04-20T09:34:29.448Z,13.83
2018-04-20T09:36:56.879Z,16.80
2018-04-20T09:39:25.121Z,14.10
2018-04-20T09:41:52.583Z,17.77
2018-04-20T09:44:20.071Z,13.73
2018-04-20T09:46:47.514Z,13.57
2018-04-20T09:49:15.064Z,10.60
2018-04-20T09:51:42.513Z,12.20
2018-04-20T09:54:09.958Z,11.87
2018-04-20T09:56:37.411Z,13.80
2018-04-20T09:59:04.847Z,17.80
2018-04-20T10:01:34.013Z,11.37
2018-04-20T10:04:01.455Z,18.20
2018-04-20T10:06:28.929Z,22.00
2018-04-20T10:08:56.371Z,15.47
2018-04-20T10:11:23.830Z,13.73
2018-04-20T10:13:51.271Z,14.30
2018-04-20T10:16:18.724Z,11.93
2018-04-20T10:18:46.930Z,13.13
2018-04-20T10:21:14.403Z,14.20
2018-04-20T10:23:41.877Z,21.10
2018-04-20T10:26:09.387Z,14.13
2018-04-20T10:28:37.594Z,15.40
2018-04-20T10:31:05.045Z,12.10
2018-04-20T10:33:32.567Z,17.37
2018-04-20T10:35:59.963Z,10.37
2018-04-20T10:38:27.402Z,9.50
2018-04-20T10:40:55.645Z,11.40
2018-04-20T10:43:23.122Z,8.20
2018-04-20T10:45:50.578Z,10.33
2018-04-20T10:48:18.035Z,10.40
2018-04-20T10:50:45.491Z,12.63
2018-04-20T10:53:12.947Z,15.73
2018-04-20T10:55:40.391Z,14.77
2018-04-20T10:58:07.846Z,21.40
2018-04-20T11:00:35.280Z,12.90
2018-04-20T11:03:03.502Z,21.23
2018-04-20T11:05:30.950Z,9.13
2018-04-20T11:07:58.395Z,9.73
2018-04-20T11:10:25.832Z,8.93
2018-04-20T11:12:54.051Z,17.27
2018-04-20T11:15:21.497Z,23.50
2018-04-20T11:17:48.974Z,41.47
2018-04-20T11:20:16.438Z,32.93
2018-04-20T11:22:43.885Z,37.93
2018-04-20T11:25:11.355Z,33.57
2018-04-20T11:27:38.847Z,36.07
2018-04-20T11:30:06.307Z,23.03
2018-04-20T11:32:33.811Z,22.40
2018-04-20T11:35:02.024Z,18.30
2018-04-20T11:37:29.511Z,9.87
2018-04-20T11:39:56.984Z,15.23
2018-04-20T11:42:24.417Z,10.90
2018-04-20T11:44:51.890Z,9.67
2018-04-20T11:47:19.486Z,10.70
2018-04-20T11:49:46.992Z,13.30
2018-04-20T11:52:14.421Z,14.60
2018-04-20T11:54:42.630Z,9.27
2018-04-20T11:57:10.062Z,14.87
2018-04-20T11:59:38.278Z,9.63
2018-04-20T12:02:05.714Z,8.00
2018-04-20T12:04:33.934Z,12.03
2018-04-20T12:07:01.374Z,8.87
2018-04-20T12:09:28.862Z,9.87
2018-04-20T12:11:56.335Z,8.10
2018-04-20T12:14:23.783Z,8.07
2018-04-20T12:16:51.222Z,7.57
2018-04-20T12:19:18.706Z,12.07
2018-04-20T12:21:46.167Z,7.40
2018-04-20T12:24:13.599Z,8.70
2018-04-20T12:26:41.102Z,9.40
2018-04-20T12:29:08.547Z,9.80
2018-04-20T12:31:36.030Z,8.80
2018-04-20T12:34:03.591Z,11.07
2018-04-20T12:36:31.051Z,16.40
2018-04-20T12:38:58.547Z,14.53
2018-04-20T12:41:25.966Z,12.97
2018-04-20T12:43:53.416Z,8.50
2018-04-20T12:46:20.968Z,11.87
2018-04-20T12:48:48.456Z,10.77
2018-04-20T12:51:15.977Z,7.43
2018-04-20T12:53:43.367Z,7.20
2018-04-20T12:56:10.829Z,9.03
2018-04-20T12:58:38.253Z,8.83
2018-04-20T13:01:06.459Z,6.50
2018-04-20T13:03:33.910Z,8.93
2018-04-20T13:06:01.405Z,7.83
2018-04-20T13:08:28.846Z,11.57
2018-04-20T13:10:56.330Z,9.43
2018-04-20T13:13:24.207Z,10.80
2018-04-20T13:15:51.652Z,5.20
2018-04-20T13:18:19.152Z,8.03
2018-04-20T13:20:46.539Z,6.37
2018-04-20T13:23:13.995Z,6.67
2018-04-20T13:25:42.302Z,9.90
2018-04-20T13:28:09.687Z,10.10
2018-04-20T13:30:37.131Z,6.23
2018-04-20T13:33:04.614Z,8.90
2018-04-20T13:35:32.046Z,6.67
2018-04-20T13:37:59.490Z,11.17
2018-04-20T13:40:27.437Z,6.60
2018-04-20T13:42:54.843Z,10.13
2018-04-20T13:45:22.291Z,8.80
2018-04-20T13:47:49.774Z,6.77
2018-04-20T13:50:17.280Z,8.00
2018-04-20T13:52:45.535Z,12.30
2018-04-20T13:55:12.970Z,11.47
2018-04-20T13:57:40.443Z,7.50
2018-04-20T14:00:07.981Z,9.60
2018-04-20T14:02:35.453Z,12.50
2018-04-20T14:05:02.947Z,10.60
2018-04-20T14:07:30.392Z,8.90
2018-04-20T14:09:57.859Z,10.37
2018-04-20T14:12:25.298Z,16.23
2018-04-20T14:14:52.748Z,15.03
2018-04-20T14:17:20.331Z,9.30
2018-04-20T14:19:47.834Z,10.07
2018-04-20T14:22:15.397Z,12.00
2018-04-20T14:24:42.875Z,8.53
2018-04-20T14:27:10.326Z,11.63
2018-04-20T14:29:37.805Z,10.93
2018-04-20T14:32:06.004Z,7.50
2018-04-20T14:34:33.444Z,17.20
2018-04-20T14:37:01.663Z,14.10
2018-04-20T14:39:29.115Z,17.07
2018-04-20T14:41:56.667Z,7.20
2018-04-20T14:44:24.131Z,11.50
2018-04-20T14:46:51.614Z,11.17
2018-04-20T14:49:19.063Z,14.67
2018-04-20T14:51:46.490Z,7.50
2018-04-20T14:54:14.720Z,16.03
2018-04-20T14:56:42.162Z,11.97
2018-04-20T14:59:09.591Z,8.33
2018-04-20T15:01:37.842Z,13.47
2018-04-20T15:04:05.286Z,12.27
2018-04-20T15:06:32.752Z,15.43
2018-04-20T15:09:00.198Z,11.47
2018-04-20T15:11:27.678Z,11.13
2018-04-20T15:13:55.146Z,9.53
2018-04-20T15:16:22.716Z,13.23
2018-04-20T15:18:51.014Z,10.43
2018-04-20T15:21:18.592Z,8.73
2018-04-20T15:23:46.809Z,9.13
2018-04-20T15:26:14.305Z,11.37
2018-04-20T15:28:41.877Z,8.33
2018-04-20T15:31:10.196Z,9.60
2018-04-20T15:33:37.617Z,8.00
2018-04-20T15:36:05.891Z,14.20
2018-04-20T15:38:33.321Z,10.47
2018-04-20T15:41:00.914Z,9.97
2018-04-20T15:43:28.371Z,10.87
2018-04-20T15:45:55.813Z,9.80
2018-04-20T15:48:23.277Z,11.13
2018-04-20T15:50:50.823Z,11.30
2018-04-20T15:53:18.543Z,14.47
2018-04-20T15:55:46.078Z,10.33
2018-04-20T15:58:13.521Z,10.10
2018-04-20T16:00:41.000Z,9.23
2018-04-20T16:03:08.451Z,7.83
2018-04-20T16:05:36.735Z,10.33
2018-04-20T16:08:04.226Z,7.77
2018-04-20T16:10:31.654Z,14.63
2018-04-20T16:12:59.117Z,9.97
2018-04-20T16:15:26.575Z,11.10
2018-04-20T16:17:54.043Z,9.57
2018-04-20T16:20:21.489Z,7.43
2018-04-20T16:22:49.004Z,9.90
2018-04-20T16:25:16.455Z,9.60
2018-04-20T16:27:44.063Z,16.50
2018-04-20T16:30:12.221Z,9.47
2018-04-20T16:32:39.726Z,14.07
2018-04-20T16:35:07.265Z,11.20
2018-04-20T16:37:34.763Z,11.27
2018-04-20T16:40:02.216Z,9.70
2018-04-20T16:42:29.667Z,15.23
2018-04-20T16:44:57.125Z,8.63
2018-04-20T16:47:24.594Z,10.10
2018-04-20T16:49:52.071Z,10.07
2018-04-20T16:52:19.509Z,8.23
2018-04-20T16:54:46.978Z,11.17
2018-04-20T16:57:14.450Z,13.80
2018-04-20T16:59:41.983Z,10.60
2018-04-20T17:02:09.414Z,7.87
2018-04-20T17:04:37.655Z,10.37
2018-04-20T17:07:05.091Z,9.20
2018-04-20T17:09:32.647Z,12.43
2018-04-20T17:12:00.076Z,11.53
2018-04-20T17:14:28.318Z,12.00
2018-04-20T17:16:55.773Z,11.83
2018-04-20T17:19:23.243Z,17.42
2018-04-20T17:21:50.716Z,11.70
2018-04-20T17:24:18.264Z,13.77
2018-04-20T17:26:45.798Z,10.10
2018-04-20T17:29:13.246Z,12.40
2018-04-20T17:31:41.498Z,13.23
2018-04-20T17:34:08.942Z,13.00
2018-04-20T17:36:36.494Z,11.17
2018-04-20T17:39:03.955Z,8.03
2018-04-20T17:41:31.407Z,18.43
2018-04-20T17:43:58.842Z,12.83
2018-04-20T17:46:26.340Z,11.53
2018-04-20T17:48:53.976Z,10.93
2018-04-20T17:51:21.458Z,8.97
2018-04-20T17:53:48.925Z,12.53
2018-04-20T17:56:16.401Z,15.37
2018-04-20T17:58:43.834Z,16.07
2018-04-20T18:01:11.310Z,13.30
2018-04-20T18:03:38.751Z,13.30
2018-04-20T18:06:06.210Z,10.27
2018-04-20T18:08:33.647Z,7.80
2018-04-20T18:11:01.231Z,9.00
2018-04-20T18:13:28.722Z,8.90
2018-04-20T18:15:56.256Z,9.73
2018-04-20T18:18:23.726Z,15.33
2018-04-20T18:20:51.154Z,9.63
2018-04-20T18:23:19.774Z,11.10
2018-04-20T18:25:47.264Z,9.50
2018-04-20T18:28:14.747Z,10.83
2018-04-20T18:30:42.243Z,16.43
2018-04-20T18:33:09.639Z,9.47
2018-04-20T18:35:37.123Z,12.10
2018-04-20T18:38:04.618Z,10.90
2018-04-20T18:40:32.850Z,8.60
2018-04-20T18:43:00.293Z,18.93
2018-04-20T18:45:27.731Z,15.70
2018-04-20T18:47:55.191Z,18.00
2018-04-20T18:50:22.733Z,16.90
2018-04-20T18:52:50.862Z,17.53
2018-04-20T18:55:18.328Z,15.30
2018-04-20T18:57:45.779Z,20.70
2018-04-20T19:00:13.227Z,18.43
2018-04-20T19:02:40.674Z,15.57
2018-04-20T19:05:08.148Z,18.97
2018-04-20T19:07:35.587Z,18.47
2018-04-20T19:10:03.787Z,18.00
2018-04-20T19:12:32.010Z,16.97
2018-04-20T19:14:59.454Z,16.70
2018-04-20T19:17:26.902Z,24.63
2018-04-20T19:19:54.344Z,26.97
2018-04-20T19:22:21.817Z,26.77
2018-04-20T19:24:49.257Z,29.13
2018-04-20T19:27:17.481Z,33.20
2018-04-20T19:29:45.054Z,34.00
2018-04-20T19:32:12.505Z,31.37
2018-04-20T19:34:39.975Z,29.57
2018-04-20T19:37:07.527Z,32.20
2018-04-20T19:39:35.596Z,38.70
2018-04-20T19:42:03.053Z,35.70
2018-04-20T19:44:30.509Z,36.07
2018-04-20T19:46:58.572Z,37.07
2018-04-20T19:49:26.066Z,33.23
2018-04-20T19:51:54.429Z,30.67
2018-04-20T19:54:22.627Z,34.00
2018-04-20T19:56:50.093Z,35.97
2018-04-20T19:59:17.568Z,27.90
2018-04-20T20:01:45.031Z,34.67
2018-04-20T20:04:12.473Z,29.50
2018-04-20T20:06:39.906Z,35.97
2018-04-20T20:09:07.353Z,34.30
2018-04-20T20:11:34.789Z,33.27
2018-04-20T20:14:03.010Z,28.03
2018-04-20T20:16:30.467Z,31.23
2018-04-20T20:18:58.050Z,35.47
2018-04-20T20:21:25.592Z,32.03
2018-04-20T20:23:53.091Z,31.03
2018-04-20T20:26:20.552Z,32.87
2018-04-20T20:28:48.078Z,31.40
2018-04-20T20:31:15.583Z,35.83
2018-04-20T20:33:43.034Z,32.60
2018-04-20T20:36:10.508Z,32.60
2018-04-20T20:38:37.959Z,28.97
2018-04-20T20:41:05.514Z,27.30
2018-04-20T20:43:32.963Z,36.77
2018-04-20T20:46:00.439Z,34.77
2018-04-20T20:48:27.883Z,31.30
2018-04-20T20:50:55.439Z,36.90
2018-04-20T20:53:22.887Z,34.10
2018-04-20T20:55:50.339Z,32.40
2018-04-20T20:58:18.560Z,35.67
2018-04-20T21:00:46.039Z,34.93
2018-04-20T21:03:13.483Z,29.90
2018-04-20T21:05:40.946Z,34.50
2018-04-20T21:08:08.406Z,40.63
2018-04-20T21:10:35.883Z,37.83
2018-04-20T21:13:03.334Z,35.60
2018-04-20T21:15:30.790Z,30.13
2018-04-20T21:17:58.266Z,31.43
2018-04-20T21:20:25.722Z,36.70
2018-04-20T21:22:53.162Z,30.50
2018-04-20T21:25:21.023Z,29.47
2018-04-20T21:27:48.470Z,29.43
2018-04-20T21:30:15.906Z,33.47
2018-04-20T21:32:44.123Z,29.73
2018-04-20T21:35:11.574Z,34.40
2018-04-20T21:37:39.018Z,34.70
2018-04-20T21:40:07.333Z,30.27
2018-04-20T21:42:34.792Z,31.37
2018-04-20T21:45:02.236Z,34.03
2018-04-20T21:47:29.741Z,29.63
2018-04-20T21:49:57.193Z,32.13
2018-04-20T21:52:24.651Z,33.77
2018-04-20T21:54:52.082Z,30.70
2018-04-20T21:57:19.535Z,32.90
2018-04-20T21:59:47.761Z,29.70
2018-04-20T22:02:15.217Z,35.40
2018-04-20T22:04:42.694Z,35.80
2018-04-20T22:07:10.141Z,32.13
2018-04-20T22:09:37.579Z,33.40
2018-04-20T22:12:05.025Z,39.07
2018-04-20T22:14:32.482Z,34.33
2018-04-20T22:17:00.711Z,36.63
2018-04-20T22:19:28.187Z,37.30
2018-04-20T22:21:55.729Z,38.13
2018-04-20T22:24:23.190Z,36.47
2018-04-20T22:26:50.630Z,45.03
2018-04-20T22:29:18.073Z,38.40
2018-04-20T22:31:45.582Z,41.70
2018-04-20T22:34:13.039Z,41.73
2018-04-20T22:36:40.487Z,38.53
2018-04-20T22:39:07.966Z,43.87
2018-04-20T22:41:35.402Z,42.30
2018-04-20T22:44:02.861Z,38.83
2018-04-20T22:46:30.303Z,41.80
2018-04-20T22:48:57.814Z,37.50
2018-04-20T22:51:25.267Z,40.87
2018-04-20T22:53:52.715Z,42.50
2018-04-20T22:56:20.196Z,42.33
2018-04-20T22:58:47.648Z,31.70
2018-04-20T23:01:15.122Z,35.00
2018-04-20T23:03:42.590Z,38.70
2018-04-20T23:06:10.031Z,30.47
2018-04-20T23:08:37.621Z,29.37
2018-04-20T23:11:05.065Z,28.83
2018-04-20T23:13:32.506Z,31.40
2018-04-20T23:15:59.986Z,30.47
2018-04-20T23:18:27.430Z,32.00
2018-04-20T23:20:54.920Z,32.13
2018-04-20T23:23:22.388Z,28.03
2018-04-20T23:25:49.951Z,31.43
2018-04-20T23:28:17.394Z,34.03
2018-04-20T23:30:44.847Z,32.80
2018-04-20T23:33:12.294Z,32.50
2018-04-20T23:35:39.755Z,42.43
2018-04-20T23:38:07.238Z,30.97
2018-04-20T23:40:34.689Z,29.30
2018-04-20T23:43:02.143Z,32.27
2018-04-20T23:45:29.599Z,34.23
2018-04-20T23:47:57.186Z,35.03
2018-04-20T23:50:24.642Z,27.70
2018-04-20T23:52:52.118Z,28.93
2018-04-20T23:55:19.583Z,32.70
2018-04-20T23:57:47.054Z,31.10
